createdAt,value
2019-06-26T00:00:48.579Z,65531
2019-06-26T00:01:58.541Z,65531
2019-06-26T00:03:08.497Z,65531
2019-06-26T00:04:18.439Z,65531
2019-06-26T00:05:28.492Z,65531
2019-06-26T00:06:38.283Z,65531
2019-06-26T00:07:48.262Z,65531
2019-06-26T00:08:58.209Z,65531
2019-06-26T00:10:08.147Z,65531
2019-06-26T00:11:18.086Z,65531
2019-06-26T00:12:28.039Z,65531
2019-06-26T00:13:37.971Z,65531
2019-06-26T00:14:48.372Z,65531
2019-06-26T00:15:58.348Z,65531
2019-06-26T00:17:08.311Z,65531
2019-06-26T00:18:18.296Z,65531
2019-06-26T00:19:28.267Z,65531
2019-06-26T00:20:38.219Z,65531
2019-06-26T00:21:48.274Z,65531
2019-06-26T00:22:58.205Z,65531
2019-06-26T00:24:08.182Z,65531
2019-06-26T00:25:18.128Z,65531
2019-06-26T00:26:28.088Z,65531
2019-06-26T00:27:38.046Z,65531
2019-06-26T00:28:47.727Z,65531
2019-06-26T00:29:57.684Z,65531
2019-06-26T00:31:07.739Z,65531
2019-06-26T00:32:17.733Z,65531
2019-06-26T00:33:27.669Z,65531
2019-06-26T00:34:37.636Z,65531
2019-06-26T00:35:47.578Z,65531
2019-06-26T00:36:57.550Z,65531
2019-06-26T00:38:07.584Z,65531
2019-06-26T00:39:17.522Z,65531
2019-06-26T00:40:27.460Z,65531
2019-06-26T00:41:37.449Z,65531
2019-06-26T00:42:47.699Z,65531
2019-06-26T00:43:57.631Z,65531
2019-06-26T00:45:07.504Z,65531
2019-06-26T00:46:17.491Z,65531
2019-06-26T00:47:27.432Z,65531
2019-06-26T00:48:37.373Z,65531
2019-06-26T00:49:47.361Z,65531
2019-06-26T00:50:57.304Z,65531
2019-06-26T00:52:07.273Z,65531
2019-06-26T00:53:17.216Z,65531
2019-06-26T00:54:27.150Z,65531
2019-06-26T00:55:37.087Z,65531
2019-06-26T00:56:47.024Z,65531
2019-06-26T00:57:56.956Z,65531
2019-06-26T00:59:07.025Z,65531
2019-06-26T01:00:17.094Z,65531
2019-06-26T01:01:27.119Z,65531
2019-06-26T01:02:36.828Z,65531
2019-06-26T01:03:46.514Z,65531
2019-06-26T01:04:56.499Z,65531
2019-06-26T01:06:06.445Z,65531
2019-06-26T01:07:16.417Z,65531
2019-06-26T01:08:26.111Z,65531
2019-06-26T01:09:36.092Z,65531
2019-06-26T01:10:46.051Z,65531
2019-06-26T01:11:56.000Z,65531
2019-06-26T01:13:05.978Z,65531
2019-06-26T01:14:15.924Z,65531
2019-06-26T01:15:25.924Z,65531
2019-06-26T01:16:35.874Z,65531
2019-06-26T01:17:45.841Z,65531
2019-06-26T01:18:55.795Z,65531
2019-06-26T01:20:05.325Z,65531
2019-06-26T01:21:15.319Z,65531
2019-06-26T01:22:25.341Z,65531
2019-06-26T01:23:35.033Z,65531
2019-06-26T01:24:44.726Z,65531
2019-06-26T01:25:54.671Z,65531
2019-06-26T01:27:04.605Z,65531
2019-06-26T01:28:14.539Z,65531
2019-06-26T01:29:24.471Z,65531
2019-06-26T01:30:34.414Z,65531
2019-06-26T01:31:44.404Z,65531
2019-06-26T01:32:54.393Z,65531
2019-06-26T01:34:04.339Z,65531
2019-06-26T01:35:14.273Z,65531
2019-06-26T01:36:24.207Z,65531
2019-06-26T01:37:34.201Z,65531
2019-06-26T01:38:44.154Z,65531
2019-06-26T01:39:54.113Z,65531
2019-06-26T01:41:04.067Z,65531
2019-06-26T01:42:14.013Z,65531
2019-06-26T01:43:23.974Z,65531
2019-06-26T01:44:33.661Z,65531
2019-06-26T01:45:43.347Z,65531
2019-06-26T01:46:53.283Z,65531
2019-06-26T01:48:02.990Z,65531
2019-06-26T01:49:12.937Z,65531
2019-06-26T01:50:22.928Z,65531
2019-06-26T01:51:32.929Z,65531
2019-06-26T01:52:42.615Z,65531
2019-06-26T01:53:52.565Z,65531
2019-06-26T01:55:02.650Z,65531
2019-06-26T01:56:12.648Z,65531
2019-06-26T01:57:22.591Z,65531
2019-06-26T01:58:32.348Z,65531
2019-06-26T01:59:42.311Z,65531
2019-06-26T02:00:52.582Z,65531
2019-06-26T02:02:02.527Z,65531
2019-06-26T02:03:12.482Z,65531
2019-06-26T02:04:25.034Z,65531
2019-06-26T02:05:34.741Z,65531
2019-06-26T02:06:44.757Z,65531
2019-06-26T02:07:54.692Z,65531
2019-06-26T02:09:04.637Z,65531
2019-06-26T02:10:14.829Z,65531
2019-06-26T02:11:24.773Z,65531
2019-06-26T02:12:34.718Z,65531
2019-06-26T02:13:44.653Z,65531
2019-06-26T02:14:54.603Z,65531
2019-06-26T02:16:04.539Z,65531
2019-06-26T02:17:14.489Z,65531
2019-06-26T02:18:24.431Z,65531
2019-06-26T02:19:34.384Z,65531
2019-06-26T02:20:44.339Z,65531
2019-06-26T02:21:54.271Z,65531
2019-06-26T02:23:04.204Z,65531
2019-06-26T02:24:14.213Z,65531
2019-06-26T02:25:24.145Z,65531
2019-06-26T02:26:34.097Z,65531
2019-06-26T02:27:44.034Z,65531
2019-06-26T02:28:53.988Z,65531
2019-06-26T02:30:03.970Z,65531
2019-06-26T02:31:13.941Z,65531
2019-06-26T02:32:23.522Z,65531
2019-06-26T02:33:33.236Z,65531
2019-06-26T02:34:43.198Z,65531
2019-06-26T02:35:53.205Z,65531
2019-06-26T02:37:03.177Z,65531
2019-06-26T02:38:13.167Z,65531
2019-06-26T02:39:23.131Z,65531
2019-06-26T02:40:33.077Z,65531
2019-06-26T02:41:43.028Z,65531
2019-06-26T02:42:52.969Z,65531
2019-06-26T02:44:02.690Z,65531
2019-06-26T02:45:12.662Z,65531
2019-06-26T02:46:22.704Z,65531
2019-06-26T02:47:32.697Z,65531
2019-06-26T02:48:42.391Z,65531
2019-06-26T02:49:52.376Z,65531
2019-06-26T02:51:02.325Z,65531
2019-06-26T02:52:12.311Z,65531
2019-06-26T02:53:22.094Z,65531
2019-06-26T02:54:32.046Z,65531
2019-06-26T02:55:42.009Z,65531
2019-06-26T02:56:51.976Z,65531
2019-06-26T02:58:01.681Z,65531
2019-06-26T02:59:11.688Z,65531
2019-06-26T03:00:21.637Z,65531
2019-06-26T03:01:31.593Z,65531
2019-06-26T03:02:41.553Z,65531
2019-06-26T03:03:51.513Z,65531
2019-06-26T03:05:01.492Z,65531
2019-06-26T03:06:11.563Z,65531
2019-06-26T03:07:21.241Z,65531
2019-06-26T03:08:31.203Z,65531
2019-06-26T03:09:40.914Z,65531
2019-06-26T03:10:50.853Z,65531
2019-06-26T03:12:00.534Z,65531
2019-06-26T03:13:10.462Z,65531
2019-06-26T03:14:20.163Z,65531
2019-06-26T03:15:29.842Z,65531
2019-06-26T03:16:39.788Z,65531
2019-06-26T03:18:04.455Z,65531
2019-06-26T03:19:14.482Z,65531
2019-06-26T03:20:24.416Z,65531
2019-06-26T03:21:34.353Z,65531
2019-06-26T03:22:44.290Z,65531
2019-06-26T03:23:53.976Z,65531
2019-06-26T03:25:03.933Z,65531
2019-06-26T03:26:13.880Z,65531
2019-06-26T03:27:23.559Z,65531
2019-06-26T03:28:33.251Z,65531
2019-06-26T03:29:43.186Z,65531
2019-06-26T03:30:53.174Z,65531
2019-06-26T03:32:03.150Z,65531
2019-06-26T03:33:13.116Z,65531
2019-06-26T03:34:23.092Z,65531
2019-06-26T03:35:33.030Z,65531
2019-06-26T03:36:43.004Z,65531
2019-06-26T03:37:52.967Z,65531
2019-06-26T03:39:02.434Z,65531
2019-06-26T03:40:12.403Z,65531
2019-06-26T03:41:22.365Z,65531
2019-06-26T03:42:32.348Z,65531
2019-06-26T03:43:45.114Z,65531
2019-06-26T03:44:55.068Z,65531
2019-06-26T03:46:05.093Z,65531
2019-06-26T03:47:15.027Z,65531
2019-06-26T03:48:24.963Z,65531
2019-06-26T03:49:34.897Z,65531
2019-06-26T03:50:44.667Z,65531
2019-06-26T03:51:54.641Z,65531
2019-06-26T03:53:04.651Z,65531
2019-06-26T03:54:14.611Z,65531
2019-06-26T03:55:24.554Z,65531
2019-06-26T03:56:34.586Z,65531
2019-06-26T03:57:45.088Z,65531
2019-06-26T03:58:55.087Z,65531
2019-06-26T04:00:05.277Z,65531
2019-06-26T04:01:14.990Z,65531
2019-06-26T04:02:24.967Z,65531
2019-06-26T04:03:34.912Z,65531
2019-06-26T04:04:44.933Z,65531
2019-06-26T04:05:54.922Z,65531
2019-06-26T04:07:05.256Z,65531
2019-06-26T04:08:15.197Z,65531
2019-06-26T04:09:25.168Z,65531
2019-06-26T04:10:35.294Z,65531
2019-06-26T04:11:45.254Z,65531
2019-06-26T04:12:55.219Z,65531
2019-06-26T04:14:05.162Z,65531
2019-06-26T04:15:15.106Z,65531
2019-06-26T04:16:24.791Z,65531
2019-06-26T04:17:34.229Z,65531
2019-06-26T04:18:44.163Z,65531
2019-06-26T04:19:54.184Z,65531
2019-06-26T04:21:04.124Z,65531
2019-06-26T04:22:14.108Z,65531
2019-06-26T04:23:24.043Z,65531
2019-06-26T04:24:33.978Z,65531
2019-06-26T04:25:47.517Z,65531
2019-06-26T04:26:57.477Z,65531
2019-06-26T04:28:10.892Z,65531
2019-06-26T04:29:20.876Z,65531
2019-06-26T04:30:30.961Z,65531
2019-06-26T04:31:40.988Z,65531
2019-06-26T04:32:50.685Z,65531
2019-06-26T04:34:00.369Z,65531
2019-06-26T04:35:10.103Z,65531
2019-06-26T04:36:20.069Z,65531
2019-06-26T04:37:29.750Z,65531
2019-06-26T04:38:39.687Z,65531
2019-06-26T04:39:49.660Z,65531
2019-06-26T04:40:59.636Z,65531
2019-06-26T04:42:09.598Z,65531
2019-06-26T04:43:19.534Z,65531
2019-06-26T04:44:29.231Z,65531
2019-06-26T04:45:39.229Z,65531
2019-06-26T04:46:49.221Z,65531
2019-06-26T04:47:59.189Z,65531
2019-06-26T04:49:08.917Z,65531
2019-06-26T04:50:18.854Z,65531
2019-06-26T04:51:28.838Z,65531
2019-06-26T04:52:38.801Z,65531
2019-06-26T04:53:48.240Z,65531
2019-06-26T04:54:58.011Z,65531
2019-06-26T04:56:08.037Z,65531
2019-06-26T04:57:18.041Z,65531
2019-06-26T04:58:28.069Z,65531
2019-06-26T04:59:38.014Z,65531
2019-06-26T05:00:48.019Z,65531
2019-06-26T05:01:57.707Z,65531
2019-06-26T05:03:07.689Z,65531
2019-06-26T05:04:17.676Z,65531
2019-06-26T05:05:46.777Z,65531
2019-06-26T05:06:56.730Z,65531
2019-06-26T05:08:06.680Z,65531
2019-06-26T05:09:16.680Z,65531
2019-06-26T05:10:26.706Z,65531
2019-06-26T05:11:36.650Z,65531
2019-06-26T05:12:46.111Z,65531
2019-06-26T05:13:56.084Z,65531
2019-06-26T05:15:06.064Z,65531
2019-06-26T05:16:27.739Z,65531
2019-06-26T05:17:37.678Z,65531
2019-06-26T05:18:47.632Z,65531
2019-06-26T05:19:57.602Z,65531
2019-06-26T05:21:07.583Z,65531
2019-06-26T05:22:17.296Z,65531
2019-06-26T05:23:27.292Z,65531
2019-06-26T05:24:37.281Z,65531
2019-06-26T05:25:47.245Z,65531
2019-06-26T05:26:57.184Z,65531
2019-06-26T05:28:10.607Z,65531
2019-06-26T05:29:20.549Z,65531
2019-06-26T05:30:30.507Z,65531
2019-06-26T05:31:40.458Z,65531
2019-06-26T05:32:50.911Z,65531
2019-06-26T05:34:00.871Z,65531
2019-06-26T05:35:10.820Z,65531
2019-06-26T05:36:20.761Z,65531
2019-06-26T05:37:30.703Z,65531
2019-06-26T05:38:40.394Z,65531
2019-06-26T05:39:53.839Z,65531
2019-06-26T05:41:04.584Z,65531
2019-06-26T05:42:16.389Z,65531
2019-06-26T05:43:26.345Z,65531
2019-06-26T05:44:36.307Z,65531
2019-06-26T05:45:46.256Z,65531
2019-06-26T05:46:56.329Z,65531
2019-06-26T05:48:06.290Z,65531
2019-06-26T05:49:16.230Z,65531
2019-06-26T05:50:26.167Z,65531
2019-06-26T05:51:36.125Z,65531
2019-06-26T05:52:49.526Z,65531
2019-06-26T05:53:59.212Z,65531
2019-06-26T05:55:09.004Z,65531
2019-06-26T05:56:18.951Z,65531
2019-06-26T05:57:28.952Z,65531
2019-06-26T05:58:38.908Z,65531
2019-06-26T05:59:48.673Z,65531
2019-06-26T06:00:58.652Z,65531
2019-06-26T06:02:08.665Z,65531
2019-06-26T06:03:18.642Z,65531
2019-06-26T06:04:28.625Z,65531
2019-06-26T06:05:38.563Z,65531
2019-06-26T06:06:51.803Z,65531
2019-06-26T06:08:01.749Z,65531
2019-06-26T06:09:11.996Z,65531
2019-06-26T06:10:22.011Z,65531
2019-06-26T06:11:32.012Z,65531
2019-06-26T06:12:41.956Z,65531
2019-06-26T06:13:52.039Z,65531
2019-06-26T06:15:02.125Z,65531
2019-06-26T06:16:15.727Z,65531
2019-06-26T06:17:25.689Z,65531
2019-06-26T06:18:35.657Z,65531
2019-06-26T06:19:45.857Z,65531
2019-06-26T06:20:55.850Z,65531
2019-06-26T06:22:05.811Z,65531
2019-06-26T06:23:15.822Z,65531
2019-06-26T06:24:25.276Z,65531
2019-06-26T06:25:35.227Z,65531
2019-06-26T06:26:45.171Z,65531
2019-06-26T06:27:55.164Z,65531
2019-06-26T06:29:05.177Z,65531
2019-06-26T06:30:15.300Z,65531
2019-06-26T06:31:25.297Z,65531
2019-06-26T06:32:35.236Z,65531
2019-06-26T06:33:45.252Z,65531
2019-06-26T06:34:54.991Z,65531
2019-06-26T06:36:04.935Z,65531
2019-06-26T06:37:14.888Z,65531
2019-06-26T06:38:24.350Z,65531
2019-06-26T06:39:34.337Z,65531
2019-06-26T06:40:44.280Z,65531
2019-06-26T06:41:54.229Z,65531
2019-06-26T06:43:04.176Z,65531
2019-06-26T06:44:14.149Z,65531
2019-06-26T06:45:23.862Z,65531
2019-06-26T06:46:33.875Z,65531
2019-06-26T06:47:43.895Z,65531
2019-06-26T06:48:53.381Z,65531
2019-06-26T06:50:03.364Z,65531
2019-06-26T06:51:13.387Z,65531
2019-06-26T06:52:26.239Z,65531
2019-06-26T06:53:36.208Z,65531
2019-06-26T06:54:46.161Z,65531
2019-06-26T06:55:56.127Z,65531
2019-06-26T06:57:06.245Z,65531
2019-06-26T06:58:16.177Z,65531
2019-06-26T06:59:26.121Z,65531
2019-06-26T07:00:36.208Z,65531
2019-06-26T07:01:45.936Z,65531
2019-06-26T07:02:55.874Z,65531
2019-06-26T07:04:05.978Z,65531
2019-06-26T07:05:15.947Z,65531
2019-06-26T07:06:25.894Z,65531
2019-06-26T07:07:35.886Z,65531
2019-06-26T07:08:45.885Z,65531
2019-06-26T07:09:56.279Z,65531
2019-06-26T07:11:06.342Z,65531
2019-06-26T07:12:16.313Z,65531
2019-06-26T07:13:26.252Z,65531
2019-06-26T07:14:36.214Z,65531
2019-06-26T07:15:46.153Z,65531
2019-06-26T07:16:56.125Z,65531
2019-06-26T07:18:06.072Z,65531
2019-06-26T07:19:16.021Z,65531
2019-06-26T07:20:25.977Z,65531
2019-06-26T07:21:35.993Z,65531
2019-06-26T07:22:45.939Z,65531
2019-06-26T07:23:55.914Z,65531
2019-06-26T07:25:05.874Z,65531
2019-06-26T07:26:18.130Z,65531
2019-06-26T07:27:27.825Z,65531
2019-06-26T07:28:37.776Z,65531
2019-06-26T07:29:47.713Z,65531
2019-06-26T07:30:57.680Z,65531
2019-06-26T07:32:07.660Z,65531
2019-06-26T07:33:17.611Z,65531
2019-06-26T07:34:27.552Z,65531
2019-06-26T07:35:37.581Z,65531
2019-06-26T07:36:47.675Z,65531
2019-06-26T07:38:00.054Z,65531
2019-06-26T07:39:10.333Z,65531
2019-06-26T07:40:20.417Z,65531
2019-06-26T07:41:30.367Z,65531
2019-06-26T07:42:40.314Z,65531
2019-06-26T07:43:50.003Z,65531
2019-06-26T07:44:59.738Z,65531
2019-06-26T07:46:09.746Z,65531
2019-06-26T07:47:49.546Z,65531
2019-06-26T07:49:02.468Z,65531
2019-06-26T07:50:12.438Z,65531
2019-06-26T07:51:22.449Z,65531
2019-06-26T07:52:32.402Z,65531
2019-06-26T07:53:42.372Z,65531
2019-06-26T07:54:51.836Z,65531
2019-06-26T07:56:01.961Z,65531
2019-06-26T07:57:11.914Z,65531
2019-06-26T07:58:21.871Z,65531
2019-06-26T07:59:31.856Z,65531
2019-06-26T08:00:41.984Z,65531
2019-06-26T08:01:51.940Z,65531
2019-06-26T08:03:04.402Z,65531
2019-06-26T08:04:14.733Z,65531
2019-06-26T08:05:24.240Z,65531
2019-06-26T08:06:34.224Z,65531
2019-06-26T08:07:44.180Z,65531
2019-06-26T08:08:53.432Z,65531
2019-06-26T08:10:03.457Z,65531
2019-06-26T08:11:16.069Z,65531
2019-06-26T08:12:25.783Z,65531
2019-06-26T08:13:35.734Z,65531
2019-06-26T08:14:45.738Z,65531
2019-06-26T08:15:55.822Z,65531
2019-06-26T08:17:05.770Z,65531
2019-06-26T08:18:15.721Z,65531
2019-06-26T08:19:25.673Z,65531
2019-06-26T08:21:10.803Z,65531
2019-06-26T08:22:21.477Z,65531
2019-06-26T08:23:30.957Z,65531
2019-06-26T08:24:40.909Z,65531
2019-06-26T08:25:50.882Z,65531
2019-06-26T08:27:00.846Z,65531
2019-06-26T08:28:10.788Z,65531
2019-06-26T08:29:20.778Z,65531
2019-06-26T08:30:30.725Z,65531
2019-06-26T08:31:40.678Z,65531
2019-06-26T08:32:50.417Z,65531
2019-06-26T08:34:00.461Z,65531
2019-06-26T08:35:10.432Z,65531
2019-06-26T08:36:20.456Z,65531
2019-06-26T08:37:30.402Z,65531
2019-06-26T08:38:40.366Z,65531
2019-06-26T08:39:50.391Z,65531
2019-06-26T08:41:00.349Z,65531
2019-06-26T08:42:10.456Z,65531
2019-06-26T08:43:20.397Z,65531
2019-06-26T08:44:30.409Z,65531
2019-06-26T08:45:40.356Z,65531
2019-06-26T08:46:50.301Z,65531
2019-06-26T08:48:16.562Z,65531
2019-06-26T08:49:35.277Z,65531
2019-06-26T08:50:45.402Z,65531
2019-06-26T08:51:55.390Z,65531
2019-06-26T08:53:05.383Z,65531
2019-06-26T08:54:15.332Z,65531
2019-06-26T08:55:25.354Z,65531
2019-06-26T08:56:35.172Z,65531
2019-06-26T08:57:45.415Z,65531
2019-06-26T08:58:55.380Z,65531
2019-06-26T09:00:05.367Z,65531
2019-06-26T09:01:15.360Z,65531
2019-06-26T09:02:24.833Z,65531
2019-06-26T09:03:34.788Z,65531
2019-06-26T09:04:44.729Z,65531
2019-06-26T09:05:58.224Z,65531
2019-06-26T09:07:08.174Z,65531
2019-06-26T09:08:18.567Z,65531
2019-06-26T09:09:28.673Z,65531
2019-06-26T09:10:39.125Z,65531
2019-06-26T09:11:49.117Z,65531
2019-06-26T09:12:59.069Z,65531
2019-06-26T09:14:08.810Z,65531
2019-06-26T09:15:18.525Z,65531
2019-06-26T09:16:28.235Z,65531
2019-06-26T09:17:38.267Z,65531
2019-06-26T09:18:48.247Z,65531
2019-06-26T09:19:58.202Z,65531
2019-06-26T09:21:08.293Z,65531
2019-06-26T09:22:18.242Z,65531
2019-06-26T09:23:31.005Z,65531
2019-06-26T09:24:40.629Z,65531
2019-06-26T09:25:50.600Z,65531
2019-06-26T09:27:00.562Z,65531
2019-06-26T09:28:10.518Z,65531
2019-06-26T09:29:23.536Z,65531
2019-06-26T09:30:34.005Z,65531
2019-06-26T09:31:43.985Z,65531
2019-06-26T09:32:53.975Z,65531
2019-06-26T09:34:03.176Z,65531
2019-06-26T09:35:13.171Z,65531
2019-06-26T09:36:22.949Z,65531
2019-06-26T09:37:32.916Z,65531
2019-06-26T09:38:42.643Z,65531
2019-06-26T09:39:52.359Z,65531
2019-06-26T09:41:02.597Z,65531
2019-06-26T09:42:12.851Z,65531
2019-06-26T09:43:22.814Z,65531
2019-06-26T09:44:32.719Z,65531
2019-06-26T09:45:42.670Z,65531
2019-06-26T09:46:52.774Z,65531
2019-06-26T09:48:02.740Z,65531
2019-06-26T09:49:12.779Z,65531
2019-06-26T09:50:22.733Z,65531
2019-06-26T09:51:32.959Z,65531
2019-06-26T09:52:42.936Z,65531
2019-06-26T09:53:56.863Z,65531
2019-06-26T09:55:06.903Z,65531
2019-06-26T09:56:16.855Z,65531
2019-06-26T09:57:26.816Z,65531
2019-06-26T09:58:36.768Z,65531
2019-06-26T09:59:46.463Z,65531
2019-06-26T10:00:56.418Z,65531
2019-06-26T10:02:06.409Z,65531
2019-06-26T10:03:16.459Z,65531
2019-06-26T10:04:26.423Z,65531
2019-06-26T10:05:36.381Z,65531
2019-06-26T10:06:46.327Z,65531
2019-06-26T10:07:56.322Z,65531
2019-06-26T10:09:06.375Z,65531
2019-06-26T10:10:16.335Z,65531
2019-06-26T10:11:26.297Z,65531
2019-06-26T10:12:36.026Z,65531
2019-06-26T10:13:45.982Z,65531
2019-06-26T10:14:57.663Z,65531
2019-06-26T10:16:09.838Z,65531
2019-06-26T10:17:19.786Z,65531
2019-06-26T10:18:29.753Z,65531
2019-06-26T10:19:39.766Z,65531
2019-06-26T10:20:49.719Z,65531
2019-06-26T10:21:59.693Z,65531
2019-06-26T10:23:09.496Z,65531
2019-06-26T10:24:19.194Z,65531
2019-06-26T10:25:29.200Z,65531
2019-06-26T10:26:41.897Z,65531
2019-06-26T10:27:51.623Z,65531
2019-06-26T10:29:01.211Z,65531
2019-06-26T10:30:11.353Z,65531
2019-06-26T10:31:25.469Z,65531
2019-06-26T10:32:35.565Z,65531
2019-06-26T10:33:45.545Z,65531
2019-06-26T10:34:54.987Z,65531
2019-06-26T10:36:04.722Z,65531
2019-06-26T10:37:14.731Z,65531
2019-06-26T10:38:24.804Z,65531
2019-06-26T10:39:34.875Z,65531
2019-06-26T10:40:44.848Z,65531
2019-06-26T10:41:59.511Z,65531
2019-06-26T10:43:09.698Z,65531
2019-06-26T10:44:19.230Z,65531
2019-06-26T10:45:29.195Z,65531
2019-06-26T10:46:38.955Z,65531
2019-06-26T10:47:49.668Z,65531
2019-06-26T10:48:59.711Z,65531
2019-06-26T10:50:09.686Z,65531
2019-06-26T10:51:19.383Z,65531
2019-06-26T10:52:29.338Z,65531
2019-06-26T10:53:39.287Z,65531
2019-06-26T10:54:51.737Z,65531
2019-06-26T10:56:01.725Z,65531
2019-06-26T10:57:11.689Z,65531
2019-06-26T10:58:21.737Z,65531
2019-06-26T10:59:31.693Z,65531
2019-06-26T11:00:41.697Z,65531
2019-06-26T11:01:51.716Z,65531
2019-06-26T11:03:01.656Z,65531
2019-06-26T11:04:11.620Z,65531
2019-06-26T11:05:21.594Z,65531
2019-06-26T11:06:31.582Z,65531
2019-06-26T11:07:43.817Z,65531
2019-06-26T11:08:53.800Z,65531
2019-06-26T11:10:03.799Z,65531
2019-06-26T11:11:13.760Z,65531
2019-06-26T11:12:23.713Z,65531
2019-06-26T11:13:33.716Z,65531
2019-06-26T11:14:43.719Z,65531
2019-06-26T11:15:53.420Z,65531
2019-06-26T11:17:03.426Z,65531
2019-06-26T11:18:13.391Z,65531
2019-06-26T11:19:23.395Z,65531
2019-06-26T11:20:33.423Z,65531
2019-06-26T11:21:43.374Z,65531
2019-06-26T11:22:53.404Z,65531
2019-06-26T11:24:03.125Z,65531
2019-06-26T11:25:13.097Z,65531
2019-06-26T11:26:23.043Z,65531
2019-06-26T11:27:33.013Z,65531
2019-06-26T11:28:42.969Z,65531
2019-06-26T11:29:52.922Z,65531
2019-06-26T11:31:02.635Z,65531
2019-06-26T11:32:16.427Z,65531
2019-06-26T11:33:26.385Z,65531
2019-06-26T11:34:36.340Z,65531
2019-06-26T11:35:46.548Z,65531
2019-06-26T11:37:12.819Z,65531
2019-06-26T11:38:22.765Z,65531
2019-06-26T11:39:32.799Z,65531
2019-06-26T11:40:43.396Z,65531
2019-06-26T11:41:53.338Z,65531
2019-06-26T11:43:03.365Z,65531
2019-06-26T11:44:13.046Z,65531
2019-06-26T11:45:23.050Z,65531
2019-06-26T11:46:32.762Z,65531
2019-06-26T11:47:45.662Z,65531
2019-06-26T11:48:55.889Z,65531
2019-06-26T11:50:10.010Z,65531
2019-06-26T11:51:19.724Z,65531
2019-06-26T11:52:29.678Z,65531
2019-06-26T11:53:39.688Z,65531
2019-06-26T11:55:06.727Z,65531
2019-06-26T11:56:16.816Z,65531
2019-06-26T11:57:26.864Z,65531
2019-06-26T11:58:36.851Z,65531
2019-06-26T11:59:46.568Z,65531
2019-06-26T12:00:56.558Z,65531
2019-06-26T12:02:06.672Z,65531
2019-06-26T12:03:20.393Z,65531
2019-06-26T12:04:30.399Z,65531
2019-06-26T12:05:40.362Z,65531
2019-06-26T12:06:53.284Z,65531
2019-06-26T12:08:03.344Z,65531
2019-06-26T12:09:13.294Z,65531
2019-06-26T12:10:23.329Z,65531
2019-06-26T12:11:33.300Z,65531
2019-06-26T12:12:43.253Z,65531
2019-06-26T12:13:52.970Z,65531
2019-06-26T12:15:02.751Z,65531
2019-06-26T12:16:12.766Z,65531
2019-06-26T12:17:22.730Z,65531
2019-06-26T12:18:32.756Z,65531
2019-06-26T12:19:42.776Z,65531
2019-06-26T12:20:52.748Z,65531
2019-06-26T12:22:02.742Z,65531
2019-06-26T12:23:12.813Z,65531
2019-06-26T12:24:26.234Z,65531
2019-06-26T12:25:36.540Z,65531
2019-06-26T12:26:46.096Z,65531
2019-06-26T12:27:56.058Z,65531
2019-06-26T12:29:06.076Z,65531
2019-06-26T12:30:16.047Z,65531
2019-06-26T12:31:26.022Z,65531
2019-06-26T12:33:01.458Z,65531
2019-06-26T12:34:12.364Z,65531
2019-06-26T12:35:22.382Z,65531
2019-06-26T12:36:32.885Z,65531
2019-06-26T12:37:47.691Z,65531
2019-06-26T12:38:57.676Z,65531
2019-06-26T12:40:08.225Z,65531
2019-06-26T12:41:18.235Z,65531
2019-06-26T12:42:28.202Z,65531
2019-06-26T12:43:37.951Z,65531
2019-06-26T12:44:47.933Z,65531
2019-06-26T12:45:57.897Z,65531
2019-06-26T12:47:07.868Z,65531
2019-06-26T12:48:21.035Z,65531
2019-06-26T12:49:30.995Z,65531
2019-06-26T12:50:45.691Z,65531
2019-06-26T12:51:55.645Z,65531
2019-06-26T12:53:05.609Z,65531
2019-06-26T12:54:15.316Z,65531
2019-06-26T12:55:25.082Z,65531
2019-06-26T12:56:35.408Z,65531
2019-06-26T12:57:45.376Z,65531
2019-06-26T12:58:58.844Z,65531
2019-06-26T13:00:10.248Z,65531
2019-06-26T13:01:20.233Z,65531
2019-06-26T13:02:30.211Z,65531
2019-06-26T13:03:40.217Z,65531
2019-06-26T13:04:54.224Z,65531
2019-06-26T13:06:03.961Z,65531
2019-06-26T13:07:13.988Z,65531
2019-06-26T13:08:24.023Z,65531
2019-06-26T13:09:33.983Z,65531
2019-06-26T13:10:58.438Z,65531
2019-06-26T13:12:08.424Z,65531
2019-06-26T13:13:18.452Z,65531
2019-06-26T13:14:28.427Z,65531
2019-06-26T13:15:38.400Z,65531
2019-06-26T13:16:48.149Z,65531
2019-06-26T13:18:01.322Z,65531
2019-06-26T13:19:11.257Z,65531
2019-06-26T13:20:20.788Z,65531
2019-06-26T13:21:30.876Z,65531
2019-06-26T13:22:40.872Z,65531
2019-06-26T13:23:50.932Z,65531
2019-06-26T13:25:00.674Z,65531
2019-06-26T13:26:10.426Z,65531
2019-06-26T13:27:20.495Z,65531
2019-06-26T13:28:30.481Z,65531
2019-06-26T13:29:40.442Z,65531
2019-06-26T13:30:53.162Z,65531
2019-06-26T13:32:03.030Z,65531
2019-06-26T13:33:12.748Z,65531
2019-06-26T13:34:22.703Z,65531
2019-06-26T13:35:33.870Z,65531
2019-06-26T13:36:43.982Z,65531
2019-06-26T13:37:54.113Z,65531
2019-06-26T13:39:03.567Z,65531
2019-06-26T13:40:13.583Z,65531
2019-06-26T13:41:23.556Z,65531
2019-06-26T13:42:33.517Z,65531
2019-06-26T13:43:43.547Z,65531
2019-06-26T13:44:53.502Z,65531
2019-06-26T13:46:06.010Z,65531
2019-06-26T13:47:15.966Z,65531
2019-06-26T13:48:25.957Z,65531
2019-06-26T13:49:35.913Z,65531
2019-06-26T13:50:45.970Z,65531
2019-06-26T13:51:55.781Z,65531
2019-06-26T13:53:05.746Z,65531
2019-06-26T13:54:15.715Z,65531
2019-06-26T13:55:25.689Z,65531
2019-06-26T13:56:35.694Z,65531
2019-06-26T13:57:45.669Z,65531
2019-06-26T13:58:55.637Z,65531
2019-06-26T14:00:05.830Z,65531
2019-06-26T14:01:15.602Z,65531
2019-06-26T14:02:29.147Z,65531
2019-06-26T14:03:39.173Z,65531
2019-06-26T14:04:49.195Z,65531
2019-06-26T14:05:59.148Z,65531
2019-06-26T14:07:11.119Z,65531
2019-06-26T14:08:21.125Z,65531
2019-06-26T14:09:31.135Z,65531
2019-06-26T14:10:41.092Z,65531
2019-06-26T14:11:51.045Z,65531
2019-06-26T14:13:00.998Z,65531
2019-06-26T14:14:10.712Z,65531
2019-06-26T14:15:20.553Z,65531
2019-06-26T14:16:34.567Z,65531
2019-06-26T14:17:44.578Z,65531
2019-06-26T14:18:54.765Z,65531
2019-06-26T14:20:04.513Z,65531
2019-06-26T14:21:29.666Z,65531
2019-06-26T14:22:39.377Z,65531
2019-06-26T14:23:49.338Z,65531
2019-06-26T14:25:01.472Z,65531
2019-06-26T14:26:11.456Z,65531
2019-06-26T14:27:21.465Z,65531
2019-06-26T14:28:31.421Z,65531
2019-06-26T14:29:41.157Z,65531
2019-06-26T14:30:51.107Z,65531
2019-06-26T14:32:01.084Z,65531
2019-06-26T14:33:11.086Z,65531
2019-06-26T14:34:21.074Z,65531
2019-06-26T14:35:30.784Z,65531
2019-06-26T14:36:40.798Z,65531
2019-06-26T14:38:20.363Z,835
2019-06-26T14:39:30.325Z,730
2019-06-26T14:40:40.370Z,730
2019-06-26T14:41:50.330Z,685
2019-06-26T14:43:00.365Z,715
2019-06-26T14:44:09.880Z,785
2019-06-26T14:45:19.590Z,860
2019-06-26T14:46:29.558Z,905
2019-06-26T14:47:42.704Z,900
2019-06-26T14:48:52.148Z,795
2019-06-26T14:50:02.103Z,700
2019-06-26T14:51:12.095Z,625
2019-06-26T14:52:22.057Z,580
2019-06-26T14:53:32.010Z,560
2019-06-26T14:54:41.995Z,530
2019-06-26T14:55:52.007Z,495
2019-06-26T14:57:01.958Z,435
2019-06-26T14:58:11.662Z,370
2019-06-26T14:59:21.628Z,325
2019-06-26T15:00:31.602Z,335
2019-06-26T15:01:41.561Z,375
2019-06-26T15:02:51.380Z,405
2019-06-26T15:04:01.082Z,425
2019-06-26T15:05:11.104Z,410
2019-06-26T15:06:26.432Z,380
2019-06-26T15:07:36.391Z,355
2019-06-26T15:08:46.830Z,335
2019-06-26T15:09:56.785Z,325